Time,TemperatureF,DewpointF,PressureIn,WindDirection,WindDirectionDegrees,WindSpeedMPH,WindSpeedGustMPH,Humidity,HourlyPrecipIn,Conditions,Clouds,dailyrainin,SoftwareType,DateUTC
2013-08-31 00:01:00,68.4,65.0,29.80,SE,135,0.0,0.0,89,0.00,,,0.00,WUHU21623XXSP,2013-08-31 04:01:00,
2013-08-31 00:04:00,68.4,65.0,29.81,SE,135,0.0,0.0,89,0.00,,,0.00,WUHU21623XXSP,2013-08-31 04:04:00,
2013-08-31 00:09:00,68.4,65.0,29.81,ESE,112,0.0,0.7,89,0.00,,,0.00,WUHU21623XXSP,2013-08-31 04:09:00,
2013-08-31 00:14:00,68.4,65.0,29.81,SE,135,0.0,0.7,89,0.00,,,0.00,WUHU21623XXSP,2013-08-31 04:14:00,
2013-08-31 00:19:00,68.4,65.0,29.81,SE,135,0.0,0.0,89,0.00,,,0.00,WUHU21623XXSP,2013-08-31 04:19:00,
2013-08-31 00:24:00,68.2,64.8,29.81,SE,135,0.0,0.0,89,0.00,,,0.00,WUHU21623XXSP,2013-08-31 04:24:00,
2013-08-31 00:29:00,68.2,64.8,29.81,NW,315,0.0,0.0,89,0.00,,,0.00,WUHU21623XXSP,2013-08-31 04:29:00,
2013-08-31 00:34:00,68.2,64.8,29.81,SE,135,0.0,0.0,89,0.00,,,0.00,WUHU21623XXSP,2013-08-31 04:34:00,
2013-08-31 00:39:00,68.2,64.8,29.81,ESE,112,0.0,0.0,89,0.00,,,0.00,WUHU21623XXSP,2013-08-31 04:39:00,
2013-08-31 00:44:00,68.2,65.1,29.81,East,90,0.0,0.0,90,0.00,,,0.00,WUHU21623XXSP,2013-08-31 04:44:00,
2013-08-31 00:49:00,68.2,65.1,29.81,East,90,0.0,0.0,90,0.00,,,0.00,WUHU21623XXSP,2013-08-31 04:49:00,
2013-08-31 00:54:00,68.0,64.9,29.80,NNW,337,0.9,0.9,90,0.00,,,0.00,WUHU21623XXSP,2013-08-31 04:54:00,
2013-08-31 00:59:00,68.0,64.9,29.81,SE,135,0.0,0.9,90,0.00,,,0.00,WUHU21623XXSP,2013-08-31 04:59:00,
2013-08-31 01:04:00,67.8,64.8,29.81,East,90,0.0,0.0,90,0.00,,,0.00,WUHU21623XXSP,2013-08-31 05:04:00,
2013-08-31 01:09:00,67.8,64.8,29.80,ENE,67,0.0,0.0,90,0.00,,,0.00,WUHU21623XXSP,2013-08-31 05:09:00,
2013-08-31 01:14:00,67.8,64.8,29.80,SSE,157,0.0,0.0,90,0.00,,,0.00,WUHU21623XXSP,2013-08-31 05:14:00,
2013-08-31 01:19:00,67.8,64.8,29.80,South,180,0.0,0.0,90,0.00,,,0.00,WUHU21623XXSP,2013-08-31 05:19:00,
2013-08-31 01:24:00,67.8,64.8,29.80,East,90,0.0,0.0,90,0.00,,,0.00,WUHU21623XXSP,2013-08-31 05:24:00,
2013-08-31 01:29:00,67.8,64.8,29.80,East,90,0.0,0.0,90,0.00,,,0.00,WUHU21623XXSP,2013-08-31 05:29:00,
2013-08-31 01:34:00,67.8,64.8,29.80,SSE,157,0.0,0.0,90,0.00,,,0.00,WUHU21623XXSP,2013-08-31 05:34:00,
2013-08-31 01:39:00,67.8,64.8,29.80,East,90,0.0,0.0,90,0.00,,,0.00,WUHU21623XXSP,2013-08-31 05:39:00,
2013-08-31 01:44:00,67.8,64.8,29.80,SE,135,0.0,0.0,90,0.00,,,0.00,WUHU21623XXSP,2013-08-31 05:44:00,
2013-08-31 01:49:00,67.8,64.8,29.79,ESE,112,0.0,0.0,90,0.00,,,0.00,WUHU21623XXSP,2013-08-31 05:49:00,
2013-08-31 01:54:00,67.8,64.8,29.79,SSE,157,0.0,0.0,90,0.00,,,0.00,WUHU21623XXSP,2013-08-31 05:54:00,
2013-08-31 01:59:00,67.8,64.8,29.80,East,90,0.0,0.0,90,0.00,,,0.00,WUHU21623XXSP,2013-08-31 05:59:00,
2013-08-31 02:04:00,67.6,64.9,29.79,ENE,67,0.0,0.0,91,0.00,,,0.00,WUHU21623XXSP,2013-08-31 06:04:00,
2013-08-31 02:09:00,67.6,64.9,29.80,East,90,0.0,0.0,91,0.00,,,0.00,WUHU21623XXSP,2013-08-31 06:09:00,
2013-08-31 02:14:00,67.6,64.9,29.79,East,90,0.0,0.0,91,0.00,,,0.00,WUHU21623XXSP,2013-08-31 06:14:00,
2013-08-31 02:19:00,67.6,64.9,29.80,ESE,112,0.0,0.0,91,0.00,,,0.00,WUHU21623XXSP,2013-08-31 06:19:00,
2013-08-31 02:24:00,67.6,64.9,29.79,South,180,0.0,0.0,91,0.00,,,0.00,WUHU21623XXSP,2013-08-31 06:24:00,
2013-08-31 02:29:00,67.6,64.9,29.79,ESE,112,0.0,0.0,91,0.00,,,0.00,WUHU21623XXSP,2013-08-31 06:29:00,
2013-08-31 02:34:00,67.6,64.9,29.80,East,90,0.0,0.0,91,0.00,,,0.00,WUHU21623XXSP,2013-08-31 06:34:00,
2013-08-31 02:39:00,67.6,64.9,29.79,ENE,67,0.0,0.0,91,0.00,,,0.00,WUHU21623XXSP,2013-08-31 06:39:00,
2013-08-31 02:44:00,67.6,64.9,29.79,ENE,67,0.0,0.0,91,0.00,,,0.00,WUHU21623XXSP,2013-08-31 06:44:00,
2013-08-31 02:49:00,67.5,64.7,29.78,East,90,0.0,0.0,91,0.00,,,0.00,WUHU21623XXSP,2013-08-31 06:49:00,
2013-08-31 02:54:00,67.6,64.9,29.79,SSE,157,0.0,0.0,91,0.00,,,0.00,WUHU21623XXSP,2013-08-31 06:54:00,
2013-08-31 02:59:00,67.6,64.9,29.79,SSE,157,0.0,0.0,91,0.00,,,0.00,WUHU21623XXSP,2013-08-31 06:59:00,
2013-08-31 03:04:00,67.6,64.9,29.79,South,180,0.0,0.0,91,0.00,,,0.00,WUHU21623XXSP,2013-08-31 07:04:00,
2013-08-31 03:09:00,67.8,65.1,29.79,South,180,0.0,0.0,91,0.00,,,0.00,WUHU21623XXSP,2013-08-31 07:09:00,
2013-08-31 03:14:00,67.8,65.1,29.79,South,180,0.0,0.0,91,0.00,,,0.00,WUHU21623XXSP,2013-08-31 07:14:00,
2013-08-31 03:19:00,67.8,65.1,29.79,SSE,157,0.0,1.1,91,0.00,,,0.00,WUHU21623XXSP,2013-08-31 07:19:00,
2013-08-31 03:24:00,68.0,65.2,29.80,ENE,67,0.0,1.1,91,0.00,,,0.00,WUHU21623XXSP,2013-08-31 07:24:00,
2013-08-31 03:29:00,68.2,65.7,29.79,SE,135,0.0,0.0,92,0.00,,,0.00,WUHU21623XXSP,2013-08-31 07:29:00,
2013-08-31 03:34:00,68.2,65.7,29.79,SSE,157,0.0,0.0,92,0.00,,,0.00,WUHU21623XXSP,2013-08-31 07:34:00,
2013-08-31 03:39:00,68.2,65.7,29.79,East,90,0.0,0.0,92,0.00,,,0.00,WUHU21623XXSP,2013-08-31 07:39:00,
2013-08-31 03:44:00,68.4,65.9,29.79,SE,135,0.0,0.0,92,0.00,,,0.00,WUHU21623XXSP,2013-08-31 07:44:00,
2013-08-31 03:49:00,68.5,66.1,29.80,South,180,0.0,0.0,92,0.00,,,0.00,WUHU21623XXSP,2013-08-31 07:49:00,
2013-08-31 03:54:00,68.5,66.1,29.79,SE,135,0.0,0.0,92,0.00,,,0.00,WUHU21623XXSP,2013-08-31 07:54:00,
2013-08-31 03:59:00,68.5,66.1,29.79,NE,45,0.0,0.0,92,0.00,,,0.00,WUHU21623XXSP,2013-08-31 07:59:00,
2013-08-31 04:04:00,68.7,66.1,29.79,ENE,67,0.0,0.0,92,0.00,,,0.00,WUHU21623XXSP,2013-08-31 08:04:00,
2013-08-31 04:09:00,68.7,66.3,29.79,WSW,247,0.0,0.0,92,0.00,,,0.00,WUHU21623XXSP,2013-08-31 08:09:00,
2013-08-31 04:14:00,68.7,66.3,29.79,ESE,112,0.0,0.0,92,0.00,,,0.00,WUHU21623XXSP,2013-08-31 08:14:00,
2013-08-31 04:19:00,68.7,66.3,29.79,East,90,0.0,0.0,92,0.00,,,0.00,WUHU21623XXSP,2013-08-31 08:19:00,
2013-08-31 04:24:00,68.7,66.3,29.79,East,90,0.0,0.0,92,0.00,,,0.00,WUHU21623XXSP,2013-08-31 08:24:00,
2013-08-31 04:29:00,68.9,66.5,29.78,ESE,112,0.0,0.0,92,0.00,,,0.00,WUHU21623XXSP,2013-08-31 08:29:00,
2013-08-31 04:34:00,69.1,66.6,29.78,West,270,0.0,0.0,92,0.00,,,0.00,WUHU21623XXSP,2013-08-31 08:34:00,
2013-08-31 04:39:00,69.1,66.6,29.78,East,90,0.0,0.0,92,0.00,,,0.00,WUHU21623XXSP,2013-08-31 08:39:00,
2013-08-31 04:44:00,69.1,66.6,29.78,East,90,0.0,0.0,92,0.00,,,0.00,WUHU21623XXSP,2013-08-31 08:44:00,
2013-08-31 04:49:00,69.3,66.8,29.79,East,90,0.0,0.0,92,0.00,,,0.00,WUHU21623XXSP,2013-08-31 08:49:00,
2013-08-31 04:54:00,69.3,66.8,29.79,SSE,157,0.0,1.6,92,0.00,,,0.00,WUHU21623XXSP,2013-08-31 08:54:00,
2013-08-31 04:59:00,69.4,66.8,29.79,SSE,157,0.0,1.6,92,0.00,,,0.00,WUHU21623XXSP,2013-08-31 08:59:00,
2013-08-31 05:04:00,69.4,67.0,29.78,ESE,112,0.0,0.0,92,0.00,,,0.00,WUHU21623XXSP,2013-08-31 09:04:00,
2013-08-31 05:09:00,69.4,67.0,29.79,SE,135,0.0,0.0,92,0.00,,,0.00,WUHU21623XXSP,2013-08-31 09:09:00,
2013-08-31 05:14:00,69.6,67.2,29.79,SW,225,0.0,0.0,92,0.00,,,0.00,WUHU21623XXSP,2013-08-31 09:14:00,
2013-08-31 05:19:00,69.6,67.2,29.78,East,90,0.0,0.0,92,0.00,,,0.00,WUHU21623XXSP,2013-08-31 09:19:00,
2013-08-31 05:24:00,69.6,67.2,29.79,ENE,67,0.0,0.0,92,0.00,,,0.00,WUHU21623XXSP,2013-08-31 09:24:00,
2013-08-31 05:29:00,69.6,67.2,29.79,SE,135,2.0,2.0,92,0.00,,,0.00,WUHU21623XXSP,2013-08-31 09:29:00,
2013-08-31 05:34:00,69.8,67.4,29.79,NE,45,0.0,2.0,92,0.00,,,0.00,WUHU21623XXSP,2013-08-31 09:34:00,
2013-08-31 05:39:00,70.0,67.4,29.78,NE,45,0.0,2.0,93,0.00,,,0.00,WUHU21623XXSP,2013-08-31 09:39:00,
2013-08-31 05:44:00,70.0,67.5,29.79,NE,45,0.0,0.0,92,0.00,,,0.00,WUHU21623XXSP,2013-08-31 09:44:00,
2013-08-31 05:49:00,70.0,67.5,29.79,SSE,157,0.0,0.0,92,0.00,,,0.00,WUHU21623XXSP,2013-08-31 09:49:00,
2013-08-31 05:54:00,70.2,67.8,29.80,SSE,157,0.0,0.0,93,0.00,,,0.00,WUHU21623XXSP,2013-08-31 09:54:00,
2013-08-31 05:59:00,70.2,68.0,29.79,NNW,337,0.0,0.0,93,0.00,,,0.00,WUHU21623XXSP,2013-08-31 09:59:00,
2013-08-31 06:04:00,70.2,68.0,29.79,East,90,0.0,0.0,93,0.00,,,0.00,WUHU21623XXSP,2013-08-31 10:04:00,
2013-08-31 06:09:00,70.3,68.2,29.79,SSE,157,0.0,0.0,93,0.00,,,0.00,WUHU21623XXSP,2013-08-31 10:09:00,
2013-08-31 06:14:00,70.3,68.2,29.79,ENE,67,0.0,0.0,93,0.00,,,0.00,WUHU21623XXSP,2013-08-31 10:14:00,
2013-08-31 06:19:00,70.3,68.2,29.78,ENE,67,0.0,0.0,93,0.00,,,0.00,WUHU21623XXSP,2013-08-31 10:19:00,
2013-08-31 06:24:00,70.3,68.2,29.79,NE,45,0.0,0.0,93,0.00,,,0.00,WUHU21623XXSP,2013-08-31 10:24:00,
2013-08-31 06:29:00,70.3,68.2,29.79,NNW,337,0.0,0.0,93,0.00,,,0.00,WUHU21623XXSP,2013-08-31 10:29:00,
2013-08-31 06:34:00,70.3,68.2,29.78,SSE,157,0.0,0.0,93,0.00,,,0.00,WUHU21623XXSP,2013-08-31 10:34:00,
2013-08-31 06:39:00,70.3,68.2,29.78,ENE,67,0.0,0.0,93,0.00,,,0.00,WUHU21623XXSP,2013-08-31 10:39:00,
2013-08-31 06:44:00,70.3,68.2,29.79,East,90,0.0,0.0,93,0.00,,,0.00,WUHU21623XXSP,2013-08-31 10:44:00,
2013-08-31 06:49:00,70.3,68.2,29.79,SE,135,0.0,0.0,93,0.00,,,0.00,WUHU21623XXSP,2013-08-31 10:49:00,
2013-08-31 06:54:00,70.5,68.4,29.79,East,90,0.0,0.0,93,0.00,,,0.00,WUHU21623XXSP,2013-08-31 10:54:00,
2013-08-31 06:59:00,70.7,68.6,29.79,East,90,0.0,0.0,93,0.00,,,0.00,WUHU21623XXSP,2013-08-31 10:59:00,
2013-08-31 07:04:00,70.9,68.7,29.79,ESE,112,0.0,1.6,93,0.00,,,0.00,WUHU21623XXSP,2013-08-31 11:04:00,
2013-08-31 07:09:00,70.9,68.7,29.80,East,90,1.6,1.6,93,0.00,,,0.00,WUHU21623XXSP,2013-08-31 11:09:00,
2013-08-31 07:14:00,71.2,69.1,29.80,ENE,67,0.0,1.6,93,0.00,,,0.00,WUHU21623XXSP,2013-08-31 11:14:00,
2013-08-31 07:19:00,71.4,69.3,29.80,NNE,22,2.9,2.9,93,0.00,,,0.00,WUHU21623XXSP,2013-08-31 11:19:00,
2013-08-31 07:24:00,71.4,69.0,29.81,North,0,0.0,3.8,92,0.00,,,0.00,WUHU21623XXSP,2013-08-31 11:24:00,
2013-08-31 07:29:00,71.4,69.0,29.81,East,90,0.0,0.0,92,0.00,,,0.00,WUHU21623XXSP,2013-08-31 11:29:00,
2013-08-31 07:34:00,71.4,69.0,29.81,NNE,22,0.0,0.0,92,0.00,,,0.00,WUHU21623XXSP,2013-08-31 11:34:00,
2013-08-31 07:36:00,71.4,69.0,29.81,WNW,292,0.0,0.0,92,0.00,,,0.00,WUHU21623XXSP,2013-08-31 11:36:00,
2013-08-31 07:39:00,71.8,69.3,29.81,NW,315,0.0,0.0,92,0.00,,,0.00,WUHU21623XXSP,2013-08-31 11:39:00,
2013-08-31 07:40:00,71.6,69.2,29.81,NNE,22,0.0,0.0,92,0.00,,,0.00,WUHU21623XXSP,2013-08-31 11:40:00,
2013-08-31 07:42:00,71.4,69.0,29.81,ENE,67,0.0,0.0,92,0.00,,,0.00,WUHU21623XXSP,2013-08-31 11:42:00,
2013-08-31 07:45:00,71.4,69.0,29.81,ENE,67,0.0,0.0,92,0.00,,,0.00,WUHU21623XXSP,2013-08-31 11:45:00,
2013-08-31 07:47:00,71.4,69.0,29.81,ENE,67,0.0,0.0,92,0.00,,,0.00,WUHU21623XXSP,2013-08-31 11:47:00,
2013-08-31 07:49:00,71.4,69.0,29.82,SSW,202,0.0,0.0,92,0.00,,,0.00,WUHU21623XXSP,2013-08-31 11:49:00,
2013-08-31 07:51:00,71.4,69.0,29.81,NE,45,0.0,0.0,92,0.00,,,0.00,WUHU21623XXSP,2013-08-31 11:51:00,
2013-08-31 07:53:00,71.4,69.0,29.82,WNW,292,1.8,1.8,92,0.00,,,0.00,WUHU21623XXSP,2013-08-31 11:53:00,
2013-08-31 07:55:00,71.4,69.0,29.81,NE,45,0.0,1.8,92,0.00,,,0.00,WUHU21623XXSP,2013-08-31 11:55:00,
2013-08-31 07:57:00,71.4,69.0,29.81,East,90,0.0,1.8,92,0.00,,,0.00,WUHU21623XXSP,2013-08-31 11:57:00,
2013-08-31 08:00:00,71.4,69.0,29.82,SE,135,0.0,1.8,92,0.00,,,0.00,WUHU21623XXSP,2013-08-31 12:00:00,
2013-08-31 08:02:00,71.8,69.3,29.81,NNE,22,0.0,1.8,92,0.00,,,0.00,WUHU21623XXSP,2013-08-31 12:02:00,
2013-08-31 08:04:00,71.8,69.3,29.82,ESE,112,0.0,0.0,92,0.00,,,0.00,WUHU21623XXSP,2013-08-31 12:04:00,
2013-08-31 08:06:00,71.6,69.2,29.82,West,270,0.0,0.0,92,0.00,,,0.00,WUHU21623XXSP,2013-08-31 12:06:00,
2013-08-31 08:08:00,71.8,69.3,29.81,NNE,22,0.0,0.0,92,0.00,,,0.00,WUHU21623XXSP,2013-08-31 12:08:00,
2013-08-31 08:10:00,71.8,69.3,29.81,SSW,202,0.0,0.0,92,0.00,,,0.00,WUHU21623XXSP,2013-08-31 12:10:00,
2013-08-31 08:12:00,71.8,69.3,29.81,NNE,22,0.0,0.0,92,0.00,,,0.00,WUHU21623XXSP,2013-08-31 12:12:00,
2013-08-31 08:15:00,71.8,69.3,29.81,ENE,67,0.0,0.0,92,0.00,,,0.00,WUHU21623XXSP,2013-08-31 12:15:00,
2013-08-31 08:17:00,72.0,69.5,29.81,WSW,247,0.0,0.0,92,0.00,,,0.00,WUHU21623XXSP,2013-08-31 12:17:00,
2013-08-31 08:19:00,71.8,69.3,29.81,SW,225,0.0,0.0,92,0.00,,,0.00,WUHU21623XXSP,2013-08-31 12:19:00,
2013-08-31 08:21:00,72.0,69.5,29.81,South,180,0.0,0.0,92,0.00,,,0.00,WUHU21623XXSP,2013-08-31 12:21:00,
2013-08-31 08:23:00,72.0,69.5,29.81,South,180,0.0,0.0,92,0.00,,,0.00,WUHU21623XXSP,2013-08-31 12:23:00,
2013-08-31 08:25:00,72.1,69.7,29.81,SE,135,0.0,0.0,92,0.00,,,0.00,WUHU21623XXSP,2013-08-31 12:25:00,
2013-08-31 08:27:00,72.1,69.7,29.81,ENE,67,0.0,0.0,92,0.00,,,0.00,WUHU21623XXSP,2013-08-31 12:27:00,
2013-08-31 08:30:00,72.1,69.7,29.81,East,90,0.0,0.0,92,0.00,,,0.00,WUHU21623XXSP,2013-08-31 12:30:00,
2013-08-31 08:32:00,72.1,69.7,29.81,East,90,0.0,0.0,92,0.00,,,0.00,WUHU21623XXSP,2013-08-31 12:32:00,
2013-08-31 08:34:00,72.3,69.7,29.81,East,90,0.0,0.0,92,0.00,,,0.00,WUHU21623XXSP,2013-08-31 12:34:00,
2013-08-31 08:36:00,72.3,69.6,29.81,East,90,0.0,0.0,91,0.00,,,0.00,WUHU21623XXSP,2013-08-31 12:36:00,
2013-08-31 08:38:00,72.3,69.9,29.81,NNE,22,0.0,0.0,92,0.00,,,0.00,WUHU21623XXSP,2013-08-31 12:38:00,
2013-08-31 08:40:00,72.3,69.9,29.81,SSE,157,0.0,0.0,92,0.00,,,0.00,WUHU21623XXSP,2013-08-31 12:40:00,
2013-08-31 08:42:00,72.5,69.7,29.80,ENE,67,0.0,0.0,91,0.00,,,0.00,WUHU21623XXSP,2013-08-31 12:42:00,
2013-08-31 08:45:00,72.5,69.7,29.81,SE,135,0.0,0.0,91,0.00,,,0.00,WUHU21623XXSP,2013-08-31 12:45:00,
2013-08-31 08:47:00,72.7,69.7,29.81,SE,135,0.0,0.0,91,0.00,,,0.00,WUHU21623XXSP,2013-08-31 12:47:00,
2013-08-31 08:50:00,72.7,69.9,29.81,ESE,112,0.0,0.0,91,0.00,,,0.00,WUHU21623XXSP,2013-08-31 12:50:00,
2013-08-31 08:51:00,72.7,69.9,29.81,ESE,112,0.0,0.0,91,0.00,,,0.00,WUHU21623XXSP,2013-08-31 12:51:00,
2013-08-31 08:53:00,72.7,69.9,29.81,SSE,157,0.0,0.0,91,0.00,,,0.00,WUHU21623XXSP,2013-08-31 12:53:00,
2013-08-31 08:55:00,73.0,70.3,29.81,NNE,22,0.0,0.0,91,0.00,,,0.00,WUHU21623XXSP,2013-08-31 12:55:00,
2013-08-31 08:57:00,73.0,70.3,29.81,NNE,22,0.0,0.0,91,0.00,,,0.00,WUHU21623XXSP,2013-08-31 12:57:00,
2013-08-31 09:00:00,73.2,70.5,29.81,East,90,0.0,0.0,91,0.00,,,0.00,WUHU21623XXSP,2013-08-31 13:00:00,
2013-08-31 09:02:00,73.0,70.5,29.81,South,180,0.0,0.0,91,0.00,,,0.00,WUHU21623XXSP,2013-08-31 13:02:00,
2013-08-31 09:04:00,73.2,70.5,29.81,ESE,112,0.0,0.0,91,0.00,,,0.00,WUHU21623XXSP,2013-08-31 13:04:00,
2013-08-31 09:06:00,73.2,70.5,29.81,ENE,67,0.0,0.0,91,0.00,,,0.00,WUHU21623XXSP,2013-08-31 13:06:00,
2013-08-31 09:08:00,73.2,70.5,29.81,ENE,67,0.0,0.0,91,0.00,,,0.00,WUHU21623XXSP,2013-08-31 13:08:00,
2013-08-31 09:10:00,73.2,70.5,29.81,ESE,112,0.0,0.0,91,0.00,,,0.00,WUHU21623XXSP,2013-08-31 13:10:00,
2013-08-31 09:12:00,73.6,70.8,29.81,WNW,292,0.0,0.0,91,0.00,,,0.00,WUHU21623XXSP,2013-08-31 13:12:00,
2013-08-31 09:15:00,73.6,70.8,29.81,ENE,67,2.0,2.0,91,0.00,,,0.00,WUHU21623XXSP,2013-08-31 13:15:00,
2013-08-31 09:17:00,73.8,71.0,29.81,SE,135,0.0,2.0,91,0.00,,,0.00,WUHU21623XXSP,2013-08-31 13:17:00,
2013-08-31 09:19:00,73.9,71.0,29.81,SE,135,0.0,2.0,91,0.00,,,0.00,WUHU21623XXSP,2013-08-31 13:19:00,
2013-08-31 09:21:00,74.1,71.4,29.82,East,90,0.0,2.0,91,0.00,,,0.00,WUHU21623XXSP,2013-08-31 13:21:00,
2013-08-31 09:23:00,74.1,71.1,29.81,ENE,67,0.0,2.0,90,0.00,,,0.00,WUHU21623XXSP,2013-08-31 13:23:00,
2013-08-31 09:25:00,74.3,71.2,29.81,South,180,0.0,0.0,90,0.00,,,0.00,WUHU21623XXSP,2013-08-31 13:25:00,
2013-08-31 09:27:00,74.3,71.2,29.81,NE,45,0.0,0.0,90,0.00,,,0.00,WUHU21623XXSP,2013-08-31 13:27:00,
2013-08-31 09:29:00,74.5,71.2,29.82,NE,45,0.0,0.0,90,0.00,,,0.00,WUHU21623XXSP,2013-08-31 13:29:00,
2013-08-31 09:32:00,74.5,71.4,29.82,ESE,112,0.0,0.0,90,0.00,,,0.00,WUHU21623XXSP,2013-08-31 13:32:00,
2013-08-31 09:34:00,74.8,71.4,29.82,SE,135,0.0,0.0,89,0.00,,,0.00,WUHU21623XXSP,2013-08-31 13:34:00,
2013-08-31 09:36:00,74.8,71.4,29.82,East,90,0.0,0.0,89,0.00,,,0.00,WUHU21623XXSP,2013-08-31 13:36:00,
2013-08-31 09:38:00,75.0,71.6,29.82,NW,315,0.0,0.0,89,0.00,,,0.00,WUHU21623XXSP,2013-08-31 13:38:00,
2013-08-31 09:40:00,75.0,71.6,29.82,NW,315,0.0,0.0,89,0.00,,,0.00,WUHU21623XXSP,2013-08-31 13:40:00,
2013-08-31 09:42:00,75.0,71.6,29.82,ESE,112,0.0,0.0,89,0.00,,,0.00,WUHU21623XXSP,2013-08-31 13:42:00,
2013-08-31 09:45:00,75.0,71.6,29.82,SSE,157,0.0,0.0,89,0.00,,,0.00,WUHU21623XXSP,2013-08-31 13:45:00,
2013-08-31 09:47:00,75.4,71.6,29.82,ESE,112,0.0,0.0,88,0.00,,,0.00,WUHU21623XXSP,2013-08-31 13:47:00,
2013-08-31 09:49:00,75.4,71.6,29.82,SE,135,0.0,0.0,88,0.00,,,0.00,WUHU21623XXSP,2013-08-31 13:49:00,
2013-08-31 09:51:00,75.4,71.6,29.82,ESE,112,0.0,0.0,88,0.00,,,0.00,WUHU21623XXSP,2013-08-31 13:51:00,
2013-08-31 09:53:00,75.4,71.6,29.82,ESE,112,0.0,0.0,88,0.00,,,0.00,WUHU21623XXSP,2013-08-31 13:53:00,
2013-08-31 09:55:00,75.4,71.6,29.82,South,180,0.0,0.0,88,0.00,,,0.00,WUHU21623XXSP,2013-08-31 13:55:00,
2013-08-31 09:57:00,75.4,71.6,29.82,ESE,112,0.0,0.0,88,0.00,,,0.00,WUHU21623XXSP,2013-08-31 13:57:00,
2013-08-31 09:59:00,75.2,71.6,29.82,ESE,112,0.0,0.0,87,0.00,,,0.00,WUHU21623XXSP,2013-08-31 13:59:00,
2013-08-31 10:02:00,75.1,71.0,29.82,ESE,112,0.0,0.0,87,0.00,,,0.00,WUHU21623XXSP,2013-08-31 14:02:00,
2013-08-31 10:04:00,74.5,70.4,29.82,ESE,112,0.0,0.0,87,0.00,,,0.00,WUHU21623XXSP,2013-08-31 14:04:00,
2013-08-31 10:06:00,74.0,69.9,29.81,ESE,112,0.0,0.0,87,0.00,,,0.00,WUHU21623XXSP,2013-08-31 14:06:00,
2013-08-31 10:08:00,73.9,69.8,29.82,North,0,0.0,0.0,87,0.00,,,0.00,WUHU21623XXSP,2013-08-31 14:08:00,
2013-08-31 10:10:00,73.5,69.4,29.81,SE,135,0.0,0.0,87,0.00,,,0.00,WUHU21623XXSP,2013-08-31 14:10:00,
2013-08-31 10:12:00,73.2,69.1,29.81,SSE,157,0.0,0.0,87,0.00,,,0.00,WUHU21623XXSP,2013-08-31 14:12:00,
2013-08-31 10:14:00,73.1,69.0,29.81,SSE,157,0.0,0.0,87,0.00,,,0.00,WUHU21623XXSP,2013-08-31 14:14:00,
2013-08-31 10:17:00,72.8,68.7,29.82,SSW,202,0.0,0.0,87,0.00,,,0.00,WUHU21623XXSP,2013-08-31 14:17:00,
2013-08-31 10:19:00,72.4,68.4,29.82,SSW,202,0.0,0.0,87,0.00,,,0.00,WUHU21623XXSP,2013-08-31 14:19:00,
2013-08-31 10:21:00,72.1,68.1,29.82,SSW,202,0.0,0.0,87,0.00,,,0.00,WUHU21623XXSP,2013-08-31 14:21:00,
2013-08-31 10:23:00,72.0,67.9,29.82,SSW,202,0.0,0.0,87,0.00,,,0.00,WUHU21623XXSP,2013-08-31 14:23:00,
2013-08-31 10:25:00,71.7,67.6,29.82,SE,135,0.0,0.0,87,0.00,,,0.00,WUHU21623XXSP,2013-08-31 14:25:00,
2013-08-31 10:28:00,71.4,67.3,29.82,SE,135,0.0,0.0,87,0.00,,,0.00,WUHU21623XXSP,2013-08-31 14:28:00,
2013-08-31 10:29:00,71.2,67.1,29.82,ESE,112,0.0,0.0,87,0.00,,,0.00,WUHU21623XXSP,2013-08-31 14:29:00,
2013-08-31 10:32:00,71.1,67.1,29.82,ESE,112,0.0,0.0,87,0.00,,,0.00,WUHU21623XXSP,2013-08-31 14:32:00,
2013-08-31 10:34:00,70.8,66.8,29.82,East,90,0.0,0.0,87,0.00,,,0.00,WUHU21623XXSP,2013-08-31 14:34:00,
2013-08-31 10:36:00,70.8,66.4,29.82,East,90,0.0,0.0,86,0.00,,,0.00,WUHU21623XXSP,2013-08-31 14:36:00,
2013-08-31 10:38:00,70.7,66.3,29.82,South,180,0.0,0.0,86,0.00,,,0.00,WUHU21623XXSP,2013-08-31 14:38:00,
2013-08-31 10:40:00,70.6,66.3,29.82,SSE,157,0.0,0.0,86,0.00,,,0.00,WUHU21623XXSP,2013-08-31 14:40:00,
2013-08-31 10:42:00,70.5,66.1,29.81,SE,135,0.0,0.0,86,0.00,,,0.00,WUHU21623XXSP,2013-08-31 14:42:00,
2013-08-31 10:45:00,70.4,66.1,29.81,SE,135,0.0,0.0,86,0.00,,,0.00,WUHU21623XXSP,2013-08-31 14:45:00,
2013-08-31 10:47:00,70.6,65.9,29.81,ESE,112,0.0,0.0,85,0.00,,,0.00,WUHU21623XXSP,2013-08-31 14:47:00,
2013-08-31 10:49:00,70.4,65.7,29.81,East,90,0.0,0.0,85,0.00,,,0.00,WUHU21623XXSP,2013-08-31 14:49:00,
2013-08-31 10:51:00,70.4,65.7,29.81,NNE,22,2.0,2.0,85,0.00,,,0.00,WUHU21623XXSP,2013-08-31 14:51:00,
2013-08-31 10:53:00,70.2,65.5,29.81,ESE,112,2.0,2.0,85,0.00,,,0.00,WUHU21623XXSP,2013-08-31 14:53:00,
2013-08-31 10:55:00,70.0,64.9,29.81,NE,45,0.0,2.0,84,0.00,,,0.00,WUHU21623XXSP,2013-08-31 14:55:00,
2013-08-31 10:57:00,69.9,64.9,29.81,NE,45,0.0,2.0,84,0.00,,,0.00,WUHU21623XXSP,2013-08-31 14:57:00,
2013-08-31 10:59:00,69.7,64.7,29.81,SSE,157,0.0,2.0,84,0.00,,,0.00,WUHU21623XXSP,2013-08-31 14:59:00,
2013-08-31 11:02:00,69.7,64.7,29.81,SE,135,0.0,2.0,84,0.00,,,0.00,WUHU21623XXSP,2013-08-31 15:02:00,
2013-08-31 11:04:00,69.6,64.6,29.81,SE,135,0.0,0.0,84,0.00,,,0.00,WUHU21623XXSP,2013-08-31 15:04:00,
2013-08-31 11:06:00,69.5,64.1,29.81,ENE,67,0.0,0.0,83,0.00,,,0.00,WUHU21623XXSP,2013-08-31 15:06:00,
2013-08-31 11:08:00,69.5,64.2,29.81,ESE,112,0.0,0.0,83,0.00,,,0.00,WUHU21623XXSP,2013-08-31 15:08:00,
2013-08-31 11:10:00,69.4,64.1,29.81,NNE,22,0.0,0.0,83,0.00,,,0.00,WUHU21623XXSP,2013-08-31 15:10:00,
2013-08-31 11:13:00,69.5,64.1,29.81,NNE,22,0.0,0.0,83,0.00,,,0.00,WUHU21623XXSP,2013-08-31 15:13:00,
2013-08-31 11:15:00,69.4,64.1,29.81,SE,135,0.0,0.0,83,0.00,,,0.00,WUHU21623XXSP,2013-08-31 15:15:00,
2013-08-31 11:17:00,69.6,64.3,29.81,SE,135,0.0,0.0,83,0.00,,,0.00,WUHU21623XXSP,2013-08-31 15:17:00,
2013-08-31 11:19:00,69.8,64.4,29.81,SSE,157,0.0,0.0,83,0.00,,,0.00,WUHU21623XXSP,2013-08-31 15:19:00,
2013-08-31 11:21:00,70.1,64.7,29.81,NNE,22,1.1,1.1,83,0.00,,,0.00,WUHU21623XXSP,2013-08-31 15:21:00,
2013-08-31 11:23:00,70.4,65.0,29.81,ESE,112,0.7,1.1,83,0.00,,,0.00,WUHU21623XXSP,2013-08-31 15:23:00,
2013-08-31 11:25:00,70.7,65.0,29.81,East,90,0.0,1.1,82,0.00,,,0.00,WUHU21623XXSP,2013-08-31 15:25:00,
2013-08-31 11:27:00,71.1,65.4,29.81,East,90,0.0,1.1,82,0.00,,,0.00,WUHU21623XXSP,2013-08-31 15:27:00,
2013-08-31 11:30:00,71.4,65.7,29.81,ESE,112,0.0,1.1,82,0.00,,,0.00,WUHU21623XXSP,2013-08-31 15:30:00,
2013-08-31 11:32:00,71.8,66.1,29.80,NNE,22,4.0,4.0,82,0.00,,,0.00,WUHU21623XXSP,2013-08-31 15:32:00,
2013-08-31 11:34:00,72.1,65.7,29.80,SE,135,2.7,4.0,80,0.00,,,0.00,WUHU21623XXSP,2013-08-31 15:34:00,
2013-08-31 11:36:00,72.4,65.9,29.80,SSW,202,2.2,4.0,80,0.00,,,0.00,WUHU21623XXSP,2013-08-31 15:36:00,
2013-08-31 11:38:00,72.6,65.8,29.80,SE,135,2.2,4.0,79,0.00,,,0.00,WUHU21623XXSP,2013-08-31 15:38:00,
2013-08-31 11:41:00,72.7,65.5,29.80,South,180,0.0,4.0,78,0.00,,,0.00,WUHU21623XXSP,2013-08-31 15:41:00,
2013-08-31 11:42:00,72.7,65.6,29.80,ENE,67,0.0,2.7,78,0.00,,,0.00,WUHU21623XXSP,2013-08-31 15:42:00,
2013-08-31 11:45:00,73.0,65.9,29.80,ESE,112,0.0,2.2,78,0.00,,,0.00,WUHU21623XXSP,2013-08-31 15:45:00,
2013-08-31 11:47:00,73.1,65.9,29.80,ESE,112,0.0,2.2,78,0.00,,,0.00,WUHU21623XXSP,2013-08-31 15:47:00,
2013-08-31 11:49:00,73.2,66.1,29.80,ENE,67,0.0,0.0,78,0.00,,,0.00,WUHU21623XXSP,2013-08-31 15:49:00,
2013-08-31 11:51:00,73.3,66.2,29.80,East,90,1.6,1.6,78,0.00,,,0.00,WUHU21623XXSP,2013-08-31 15:51:00,
2013-08-31 11:53:00,73.5,66.3,29.80,NW,315,0.0,1.6,78,0.00,,,0.00,WUHU21623XXSP,2013-08-31 15:53:00,
2013-08-31 11:55:00,73.6,66.4,29.80,East,90,0.0,1.6,78,0.00,,,0.00,WUHU21623XXSP,2013-08-31 15:55:00,
2013-08-31 11:57:00,73.5,66.4,29.80,WNW,292,0.0,1.6,78,0.00,,,0.00,WUHU21623XXSP,2013-08-31 15:57:00,
2013-08-31 11:59:00,73.5,66.0,29.79,WNW,292,0.0,1.6,77,0.00,,,0.00,WUHU21623XXSP,2013-08-31 15:59:00,
2013-08-31 12:02:00,73.5,66.0,29.80,East,90,0.0,0.0,77,0.00,,,0.00,WUHU21623XXSP,2013-08-31 16:02:00,
2013-08-31 12:04:00,73.7,66.5,29.80,ENE,67,0.0,0.0,78,0.00,,,0.00,WUHU21623XXSP,2013-08-31 16:04:00,
2013-08-31 12:06:00,73.9,66.7,29.80,NNE,22,0.0,0.0,78,0.00,,,0.00,WUHU21623XXSP,2013-08-31 16:06:00,
2013-08-31 12:08:00,74.0,66.8,29.80,SE,135,0.0,0.0,78,0.00,,,0.00,WUHU21623XXSP,2013-08-31 16:08:00,
2013-08-31 12:10:00,74.0,66.8,29.80,ENE,67,1.6,1.6,78,0.00,,,0.00,WUHU21623XXSP,2013-08-31 16:10:00,
2013-08-31 12:12:00,74.0,67.2,29.80,WSW,247,0.0,1.6,79,0.00,,,0.00,WUHU21623XXSP,2013-08-31 16:12:00,
2013-08-31 12:15:00,74.0,67.2,29.80,ESE,112,0.0,1.6,79,0.00,,,0.00,WUHU21623XXSP,2013-08-31 16:15:00,
2013-08-31 12:17:00,74.3,67.4,29.80,South,180,0.0,1.6,79,0.00,,,0.00,WUHU21623XXSP,2013-08-31 16:17:00,
2013-08-31 12:19:00,74.5,68.1,29.80,East,90,0.0,1.6,80,0.00,,,0.00,WUHU21623XXSP,2013-08-31 16:19:00,
2013-08-31 12:21:00,74.8,68.3,29.79,ESE,112,0.0,0.0,80,0.00,,,0.00,WUHU21623XXSP,2013-08-31 16:21:00,
2013-08-31 12:23:00,75.1,68.6,29.79,ENE,67,0.0,0.0,80,0.00,,,0.00,WUHU21623XXSP,2013-08-31 16:23:00,
2013-08-31 12:25:00,75.3,68.8,29.79,South,180,0.0,0.0,80,0.00,,,0.00,WUHU21623XXSP,2013-08-31 16:25:00,
2013-08-31 12:27:00,75.8,69.3,29.79,South,180,0.0,0.0,80,0.00,,,0.00,WUHU21623XXSP,2013-08-31 16:27:00,
2013-08-31 12:30:00,76.1,69.6,29.79,NNW,337,0.0,0.0,80,0.00,,,0.00,WUHU21623XXSP,2013-08-31 16:30:00,
2013-08-31 12:32:00,76.4,69.9,29.79,SSE,157,0.0,0.0,80,0.00,,,0.00,WUHU21623XXSP,2013-08-31 16:32:00,
2013-08-31 12:34:00,76.9,70.4,29.79,SSE,157,0.0,0.0,80,0.00,,,0.00,WUHU21623XXSP,2013-08-31 16:34:00,
2013-08-31 12:36:00,77.0,70.5,29.79,South,180,0.0,0.0,80,0.00,,,0.00,WUHU21623XXSP,2013-08-31 16:36:00,
2013-08-31 12:38:00,77.3,70.8,29.79,North,0,0.0,0.0,80,0.00,,,0.00,WUHU21623XXSP,2013-08-31 16:38:00,
2013-08-31 12:40:00,77.6,71.1,29.79,SSE,157,1.6,1.6,80,0.00,,,0.00,WUHU21623XXSP,2013-08-31 16:40:00,
2013-08-31 12:42:00,77.8,71.2,29.79,East,90,0.0,1.6,80,0.00,,,0.00,WUHU21623XXSP,2013-08-31 16:42:00,
2013-08-31 12:45:00,78.3,71.7,29.79,NNW,337,0.0,1.6,80,0.00,,,0.00,WUHU21623XXSP,2013-08-31 16:45:00,
2013-08-31 12:47:00,78.8,72.2,29.80,SE,135,0.0,1.6,80,0.00,,,0.00,WUHU21623XXSP,2013-08-31 16:47:00,
2013-08-31 12:49:00,78.7,72.1,29.79,West,270,0.0,1.6,80,0.00,,,0.00,WUHU21623XXSP,2013-08-31 16:49:00,
2013-08-31 12:51:00,79.1,72.5,29.79,NNW,337,0.0,0.0,80,0.00,,,0.00,WUHU21623XXSP,2013-08-31 16:51:00,
2013-08-31 12:53:00,79.8,73.2,29.79,North,0,1.3,1.3,80,0.00,,,0.00,WUHU21623XXSP,2013-08-31 16:53:00,
2013-08-31 12:55:00,80.2,73.5,29.79,NNE,22,1.3,1.3,80,0.00,,,0.00,WUHU21623XXSP,2013-08-31 16:55:00,
2013-08-31 12:57:00,80.5,73.8,29.79,NNE,22,1.3,1.3,80,0.00,,,0.00,WUHU21623XXSP,2013-08-31 16:57:00,
2013-08-31 13:00:00,81.0,74.3,29.79,SW,225,1.3,1.3,80,0.00,,,0.00,WUHU21623XXSP,2013-08-31 17:00:00,
2013-08-31 13:02:00,81.0,73.9,29.79,NNE,22,2.5,2.5,79,0.00,,,0.00,WUHU21623XXSP,2013-08-31 17:02:00,
2013-08-31 13:04:00,81.1,74.1,29.79,ESE,112,0.0,2.5,79,0.00,,,0.00,WUHU21623XXSP,2013-08-31 17:04:00,
2013-08-31 13:06:00,81.1,74.1,29.79,NE,45,3.8,3.8,79,0.00,,,0.00,WUHU21623XXSP,2013-08-31 17:06:00,
2013-08-31 13:08:00,81.1,74.1,29.78,SSE,157,0.0,3.8,79,0.00,,,0.00,WUHU21623XXSP,2013-08-31 17:08:00,
2013-08-31 13:10:00,81.1,74.1,29.78,ESE,112,0.0,3.8,79,0.00,,,0.00,WUHU21623XXSP,2013-08-31 17:10:00,
2013-08-31 13:12:00,81.1,74.1,29.78,NE,45,2.0,3.8,79,0.00,,,0.00,WUHU21623XXSP,2013-08-31 17:12:00,
2013-08-31 13:15:00,81.1,74.1,29.78,NNE,22,0.0,3.8,79,0.00,,,0.00,WUHU21623XXSP,2013-08-31 17:15:00,
2013-08-31 13:17:00,81.3,74.2,29.78,ENE,67,0.0,2.0,79,0.00,,,0.00,WUHU21623XXSP,2013-08-31 17:17:00,
2013-08-31 13:19:00,81.3,74.2,29.78,ENE,67,0.0,2.0,79,0.00,,,0.00,WUHU21623XXSP,2013-08-31 17:19:00,
2013-08-31 13:21:00,81.3,74.2,29.78,East,90,0.0,2.0,79,0.00,,,0.00,WUHU21623XXSP,2013-08-31 17:21:00,
2013-08-31 13:23:00,81.1,74.1,29.79,SSE,157,0.0,0.0,79,0.00,,,0.00,WUHU21623XXSP,2013-08-31 17:23:00,
2013-08-31 13:25:00,81.1,74.1,29.78,SSE,157,0.0,0.0,79,0.00,,,0.00,WUHU21623XXSP,2013-08-31 17:25:00,
2013-08-31 13:27:00,81.0,73.9,29.79,SE,135,0.0,0.0,79,0.00,,,0.00,WUHU21623XXSP,2013-08-31 17:27:00,
2013-08-31 13:30:00,80.8,73.7,29.79,East,90,0.0,0.0,79,0.00,,,0.00,WUHU21623XXSP,2013-08-31 17:30:00,
2013-08-31 13:32:00,80.6,73.5,29.78,ESE,112,0.0,0.0,79,0.00,,,0.00,WUHU21623XXSP,2013-08-31 17:32:00,
2013-08-31 13:34:00,80.4,73.4,29.79,SSW,202,0.0,0.0,79,0.00,,,0.00,WUHU21623XXSP,2013-08-31 17:34:00,
2013-08-31 13:36:00,80.4,73.4,29.79,West,270,0.0,0.0,79,0.00,,,0.00,WUHU21623XXSP,2013-08-31 17:36:00,
2013-08-31 13:38:00,80.4,73.4,29.79,SE,135,2.2,2.2,79,0.00,,,0.00,WUHU21623XXSP,2013-08-31 17:38:00,
2013-08-31 13:40:00,80.4,73.8,29.79,ENE,67,0.0,2.2,80,0.00,,,0.00,WUHU21623XXSP,2013-08-31 17:40:00,
2013-08-31 13:42:00,80.4,73.8,29.79,ESE,112,0.0,2.2,80,0.00,,,0.00,WUHU21623XXSP,2013-08-31 17:42:00,
2013-08-31 13:45:00,80.2,73.6,29.79,ESE,112,0.0,2.2,80,0.00,,,0.00,WUHU21623XXSP,2013-08-31 17:45:00,
2013-08-31 13:47:00,80.4,73.8,29.80,East,90,1.6,2.2,80,0.00,,,0.00,WUHU21623XXSP,2013-08-31 17:47:00,
2013-08-31 13:49:00,80.4,73.8,29.79,SE,135,0.0,1.6,80,0.00,,,0.00,WUHU21623XXSP,2013-08-31 17:49:00,
2013-08-31 13:51:00,80.4,73.8,29.79,East,90,0.9,1.6,80,0.00,,,0.00,WUHU21623XXSP,2013-08-31 17:51:00,
2013-08-31 13:53:00,80.2,73.6,29.79,South,180,0.0,1.6,80,0.00,,,0.00,WUHU21623XXSP,2013-08-31 17:53:00,
2013-08-31 13:55:00,80.4,73.8,29.79,NNE,22,0.0,1.6,80,0.00,,,0.00,WUHU21623XXSP,2013-08-31 17:55:00,
2013-08-31 13:57:00,80.2,73.6,29.79,East,90,0.0,0.9,80,0.00,,,0.00,WUHU21623XXSP,2013-08-31 17:57:00,
2013-08-31 14:00:00,80.4,73.8,29.79,SE,135,0.0,0.9,80,0.00,,,0.00,WUHU21623XXSP,2013-08-31 18:00:00,
2013-08-31 14:02:00,80.2,73.6,29.79,SSE,157,0.0,0.0,80,0.00,,,0.00,WUHU21623XXSP,2013-08-31 18:02:00,
2013-08-31 14:04:00,80.2,73.6,29.79,ESE,112,0.0,0.0,80,0.00,,,0.00,WUHU21623XXSP,2013-08-31 18:04:00,
2013-08-31 14:06:00,80.4,73.8,29.78,NE,45,0.0,0.0,80,0.00,,,0.00,WUHU21623XXSP,2013-08-31 18:06:00,
2013-08-31 14:08:00,80.4,73.8,29.78,NE,45,0.0,0.0,80,0.00,,,0.00,WUHU21623XXSP,2013-08-31 18:08:00,
2013-08-31 14:10:00,80.4,73.8,29.79,NNW,337,0.0,0.0,80,0.00,,,0.00,WUHU21623XXSP,2013-08-31 18:10:00,
2013-08-31 14:12:00,80.6,73.9,29.79,SSW,202,1.3,1.3,80,0.00,,,0.00,WUHU21623XXSP,2013-08-31 18:12:00,
2013-08-31 14:15:00,80.6,73.9,29.78,WSW,247,0.0,1.3,80,0.00,,,0.00,WUHU21623XXSP,2013-08-31 18:15:00,
2013-08-31 14:17:00,80.6,73.9,29.78,NNE,22,0.0,1.3,80,0.00,,,0.00,WUHU21623XXSP,2013-08-31 18:17:00,
2013-08-31 14:19:00,80.8,74.1,29.79,SSW,202,3.1,3.1,80,0.00,,,0.00,WUHU21623XXSP,2013-08-31 18:19:00,
2013-08-31 14:21:00,81.0,73.9,29.78,South,180,1.1,3.1,79,0.00,,,0.00,WUHU21623XXSP,2013-08-31 18:21:00,
2013-08-31 14:23:00,80.8,73.7,29.79,SSE,157,1.8,3.1,79,0.00,,,0.00,WUHU21623XXSP,2013-08-31 18:23:00,
2013-08-31 14:25:00,81.0,73.9,29.78,SSE,157,0.0,3.1,79,0.00,,,0.00,WUHU21623XXSP,2013-08-31 18:25:00,
2013-08-31 14:27:00,80.8,73.9,29.79,SSE,157,0.0,3.1,79,0.00,,,0.00,WUHU21623XXSP,2013-08-31 18:27:00,
2013-08-31 14:30:00,80.8,73.7,29.78,WSW,247,0.0,1.8,79,0.00,,,0.00,WUHU21623XXSP,2013-08-31 18:30:00,
2013-08-31 14:32:00,81.0,73.9,29.78,SSE,157,0.0,1.8,79,0.00,,,0.00,WUHU21623XXSP,2013-08-31 18:32:00,
2013-08-31 14:34:00,81.0,73.9,29.78,ESE,112,0.9,0.9,79,0.00,,,0.00,WUHU21623XXSP,2013-08-31 18:34:00,
2013-08-31 14:36:00,80.8,73.9,29.78,ESE,112,0.9,0.9,78,0.00,,,0.00,WUHU21623XXSP,2013-08-31 18:36:00,
2013-08-31 14:38:00,81.0,73.5,29.79,East,90,2.5,2.5,78,0.00,,,0.00,WUHU21623XXSP,2013-08-31 18:38:00,
2013-08-31 14:40:00,81.0,73.5,29.78,East,90,2.5,2.5,78,0.00,,,0.00,WUHU21623XXSP,2013-08-31 18:40:00,
2013-08-31 14:42:00,80.8,73.3,29.78,NNW,337,1.1,2.5,78,0.00,,,0.00,WUHU21623XXSP,2013-08-31 18:42:00,
2013-08-31 14:45:00,80.8,73.3,29.78,SSE,157,0.0,2.5,78,0.00,,,0.00,WUHU21623XXSP,2013-08-31 18:45:00,
2013-08-31 14:47:00,80.8,73.3,29.78,SSE,157,0.0,2.5,78,0.00,,,0.00,WUHU21623XXSP,2013-08-31 18:47:00,
2013-08-31 14:49:00,80.8,73.3,29.79,ENE,67,2.9,2.9,78,0.00,,,0.00,WUHU21623XXSP,2013-08-31 18:49:00,
2013-08-31 14:51:00,80.8,73.3,29.78,SE,135,0.0,2.9,78,0.00,,,0.00,WUHU21623XXSP,2013-08-31 18:51:00,
2013-08-31 14:53:00,80.6,73.1,29.78,ENE,67,0.0,2.9,78,0.00,,,0.00,WUHU21623XXSP,2013-08-31 18:53:00,
2013-08-31 14:55:00,80.4,73.0,29.78,NNW,337,2.0,2.9,78,0.00,,,0.00,WUHU21623XXSP,2013-08-31 18:55:00,
2013-08-31 14:57:00,80.4,73.0,29.78,ENE,67,1.1,2.9,78,0.00,,,0.00,WUHU21623XXSP,2013-08-31 18:57:00,
2013-08-31 15:00:00,80.6,73.1,29.78,WNW,292,0.0,2.0,78,0.00,,,0.00,WUHU21623XXSP,2013-08-31 19:00:00,
2013-08-31 15:02:00,80.4,73.1,29.78,WSW,247,0.0,2.0,78,0.00,,,0.00,WUHU21623XXSP,2013-08-31 19:02:00,
2013-08-31 15:04:00,80.4,73.0,29.78,SE,135,0.0,2.0,78,0.00,,,0.00,WUHU21623XXSP,2013-08-31 19:04:00,
2013-08-31 15:06:00,80.4,73.0,29.78,East,90,0.0,1.1,78,0.00,,,0.00,WUHU21623XXSP,2013-08-31 19:06:00,
2013-08-31 15:09:00,80.4,73.0,29.78,ENE,67,0.0,0.0,78,0.00,,,0.00,WUHU21623XXSP,2013-08-31 19:09:00,
2013-08-31 15:10:00,80.4,73.0,29.78,ENE,67,3.4,3.4,78,0.00,,,0.00,WUHU21623XXSP,2013-08-31 19:10:00,
2013-08-31 15:12:00,80.4,73.0,29.78,NE,45,0.0,3.4,78,0.00,,,0.00,WUHU21623XXSP,2013-08-31 19:12:00,
2013-08-31 15:15:00,80.4,73.0,29.78,ESE,112,1.6,3.4,78,0.00,,,0.00,WUHU21623XXSP,2013-08-31 19:15:00,
2013-08-31 15:17:00,80.2,72.8,29.78,South,180,0.0,3.4,78,0.00,,,0.00,WUHU21623XXSP,2013-08-31 19:17:00,
2013-08-31 15:19:00,80.2,72.8,29.78,ESE,112,0.0,3.4,78,0.00,,,0.00,WUHU21623XXSP,2013-08-31 19:19:00,
2013-08-31 15:21:00,80.2,72.8,29.78,South,180,0.0,1.6,78,0.00,,,0.00,WUHU21623XXSP,2013-08-31 19:21:00,
2013-08-31 15:23:00,80.2,72.8,29.78,South,180,0.0,1.6,78,0.00,,,0.00,WUHU21623XXSP,2013-08-31 19:23:00,
2013-08-31 15:25:00,80.2,72.8,29.78,NNE,22,0.0,0.0,78,0.00,,,0.00,WUHU21623XXSP,2013-08-31 19:25:00,
2013-08-31 15:27:00,80.2,72.8,29.77,SW,225,0.0,0.0,79,0.00,,,0.00,WUHU21623XXSP,2013-08-31 19:27:00,
2013-08-31 15:30:00,80.2,73.2,29.78,SW,225,0.0,0.0,79,0.00,,,0.00,WUHU21623XXSP,2013-08-31 19:30:00,
2013-08-31 15:32:00,80.2,73.2,29.78,SSE,157,0.0,0.0,79,0.00,,,0.00,WUHU21623XXSP,2013-08-31 19:32:00,
2013-08-31 15:34:00,80.2,73.2,29.78,ESE,112,1.1,1.1,79,0.00,,,0.00,WUHU21623XXSP,2013-08-31 19:34:00,
2013-08-31 15:36:00,80.2,73.2,29.78,SE,135,2.0,2.0,79,0.00,,,0.00,WUHU21623XXSP,2013-08-31 19:36:00,
2013-08-31 15:38:00,80.2,72.8,29.78,SSW,202,1.6,2.0,78,0.00,,,0.00,WUHU21623XXSP,2013-08-31 19:38:00,
2013-08-31 15:40:00,80.1,72.6,29.78,East,90,1.3,2.0,78,0.00,,,0.00,WUHU21623XXSP,2013-08-31 19:40:00,
2013-08-31 15:42:00,80.2,72.8,29.78,SSE,157,0.0,2.0,78,0.00,,,0.00,WUHU21623XXSP,2013-08-31 19:42:00,
2013-08-31 15:45:00,79.9,72.8,29.78,SSE,157,0.0,2.0,78,0.00,,,0.00,WUHU21623XXSP,2013-08-31 19:45:00,
2013-08-31 15:47:00,80.1,72.6,29.78,ESE,112,1.1,1.6,78,0.00,,,0.00,WUHU21623XXSP,2013-08-31 19:47:00,
2013-08-31 15:49:00,79.9,72.4,29.78,WSW,247,1.6,1.6,78,0.00,,,0.00,WUHU21623XXSP,2013-08-31 19:49:00,
2013-08-31 15:51:00,80.1,72.6,29.78,ESE,112,0.0,1.6,78,0.00,,,0.00,WUHU21623XXSP,2013-08-31 19:51:00,
2013-08-31 15:53:00,79.9,72.6,29.78,ESE,112,0.0,1.6,78,0.00,,,0.00,WUHU21623XXSP,2013-08-31 19:53:00,
2013-08-31 15:56:00,79.9,72.4,29.78,North,0,1.3,1.6,78,0.00,,,0.00,WUHU21623XXSP,2013-08-31 19:56:00,
2013-08-31 15:57:00,79.9,72.4,29.78,South,180,0.0,1.6,78,0.00,,,0.00,WUHU21623XXSP,2013-08-31 19:57:00,
2013-08-31 16:00:00,79.7,72.2,29.78,NE,45,2.0,2.0,78,0.00,,,0.00,WUHU21623XXSP,2013-08-31 20:00:00,
2013-08-31 16:02:00,79.7,72.2,29.78,NE,45,0.0,2.0,78,0.00,,,0.00,WUHU21623XXSP,2013-08-31 20:02:00,
2013-08-31 16:04:00,79.5,72.2,29.78,NE,45,0.0,2.0,79,0.00,,,0.00,WUHU21623XXSP,2013-08-31 20:04:00,
2013-08-31 16:06:00,79.5,72.1,29.78,NE,45,3.8,3.8,78,0.00,,,0.00,WUHU21623XXSP,2013-08-31 20:06:00,
2013-08-31 16:08:00,79.3,72.3,29.78,NE,45,2.2,3.8,79,0.00,,,0.00,WUHU21623XXSP,2013-08-31 20:08:00,
2013-08-31 16:10:00,79.2,72.1,29.78,SE,135,2.5,3.8,79,0.00,,,0.00,WUHU21623XXSP,2013-08-31 20:10:00,
2013-08-31 16:12:00,79.2,72.1,29.78,SSW,202,0.0,3.8,79,0.00,,,0.00,WUHU21623XXSP,2013-08-31 20:12:00,
2013-08-31 16:15:00,79.0,71.9,29.78,NE,45,2.0,3.8,79,0.00,,,0.00,WUHU21623XXSP,2013-08-31 20:15:00,
2013-08-31 16:17:00,79.0,71.9,29.78,SSE,157,0.0,2.5,79,0.00,,,0.00,WUHU21623XXSP,2013-08-31 20:17:00,
2013-08-31 16:19:00,78.6,71.9,29.78,East,90,0.0,2.5,79,0.00,,,0.00,WUHU21623XXSP,2013-08-31 20:19:00,
2013-08-31 16:21:00,78.6,71.6,29.78,SSE,157,0.0,2.0,79,0.00,,,0.00,WUHU21623XXSP,2013-08-31 20:21:00,
2013-08-31 16:23:00,78.6,71.6,29.78,SSW,202,0.0,2.0,79,0.00,,,0.00,WUHU21623XXSP,2013-08-31 20:23:00,
2013-08-31 16:25:00,78.6,71.6,29.78,SSW,202,0.0,0.0,79,0.00,,,0.00,WUHU21623XXSP,2013-08-31 20:25:00,
2013-08-31 16:28:00,78.4,71.4,29.78,NNE,22,0.0,0.0,79,0.00,,,0.00,WUHU21623XXSP,2013-08-31 20:28:00,
2013-08-31 16:30:00,78.3,71.6,29.78,North,0,0.0,0.0,80,0.00,,,0.00,WUHU21623XXSP,2013-08-31 20:30:00,
2013-08-31 16:32:00,78.1,71.4,29.78,ESE,112,0.0,0.0,80,0.00,,,0.00,WUHU21623XXSP,2013-08-31 20:32:00,
2013-08-31 16:34:00,78.1,71.4,29.78,West,270,1.3,1.3,80,0.00,,,0.00,WUHU21623XXSP,2013-08-31 20:34:00,
2013-08-31 16:36:00,77.9,71.2,29.78,South,180,1.3,1.3,80,0.00,,,0.00,WUHU21623XXSP,2013-08-31 20:36:00,
2013-08-31 16:38:00,77.9,71.2,29.78,SE,135,0.0,1.3,80,0.00,,,0.00,WUHU21623XXSP,2013-08-31 20:38:00,
2013-08-31 16:40:00,77.7,71.4,29.78,SE,135,0.0,1.3,81,0.00,,,0.00,WUHU21623XXSP,2013-08-31 20:40:00,
2013-08-31 16:42:00,77.7,71.1,29.78,ESE,112,0.0,1.3,80,0.00,,,0.00,WUHU21623XXSP,2013-08-31 20:42:00,
2013-08-31 16:45:00,77.7,71.4,29.78,SSE,157,0.0,1.3,81,0.00,,,0.00,WUHU21623XXSP,2013-08-31 20:45:00,
2013-08-31 16:48:00,77.5,71.2,29.78,ESE,112,0.0,0.0,81,0.00,,,0.00,WUHU21623XXSP,2013-08-31 20:48:00,
2013-08-31 16:49:00,77.4,71.1,29.78,ESE,112,0.0,0.0,81,0.00,,,0.00,WUHU21623XXSP,2013-08-31 20:49:00,
2013-08-31 16:51:00,77.4,71.1,29.78,East,90,3.1,3.1,81,0.00,,,0.00,WUHU21623XXSP,2013-08-31 20:51:00,
2013-08-31 16:53:00,77.2,71.1,29.78,East,90,3.1,3.1,81,0.00,,,0.00,WUHU21623XXSP,2013-08-31 20:53:00,
2013-08-31 16:55:00,77.4,71.1,29.78,NW,315,0.0,3.1,81,0.00,,,0.00,WUHU21623XXSP,2013-08-31 20:55:00,
2013-08-31 16:57:00,77.2,70.9,29.78,SE,135,1.3,3.1,81,0.00,,,0.00,WUHU21623XXSP,2013-08-31 20:57:00,
2013-08-31 17:00:00,77.2,70.9,29.78,SSE,157,0.0,3.1,81,0.00,,,0.00,WUHU21623XXSP,2013-08-31 21:00:00,
2013-08-31 17:02:00,77.2,71.2,29.78,SE,135,0.0,3.1,82,0.00,,,0.00,WUHU21623XXSP,2013-08-31 21:02:00,
2013-08-31 17:04:00,77.2,71.2,29.78,East,90,0.0,1.3,82,0.00,,,0.00,WUHU21623XXSP,2013-08-31 21:04:00,
2013-08-31 17:06:00,76.8,70.9,29.78,ENE,67,0.0,1.3,82,0.00,,,0.00,WUHU21623XXSP,2013-08-31 21:06:00,
2013-08-31 17:08:00,76.8,70.9,29.78,ESE,112,0.0,0.0,82,0.00,,,0.00,WUHU21623XXSP,2013-08-31 21:08:00,
2013-08-31 17:10:00,76.8,70.9,29.78,ESE,112,0.0,0.0,82,0.00,,,0.00,WUHU21623XXSP,2013-08-31 21:10:00,
2013-08-31 17:12:00,76.8,70.9,29.78,ESE,112,0.0,0.0,82,0.00,,,0.00,WUHU21623XXSP,2013-08-31 21:12:00,
2013-08-31 17:15:00,76.6,70.7,29.78,SSE,157,0.0,0.0,82,0.00,,,0.00,WUHU21623XXSP,2013-08-31 21:15:00,
2013-08-31 17:17:00,76.6,70.7,29.78,SSE,157,0.0,0.0,82,0.00,,,0.00,WUHU21623XXSP,2013-08-31 21:17:00,
2013-08-31 17:19:00,76.3,70.4,29.78,East,90,0.0,0.0,82,0.00,,,0.00,WUHU21623XXSP,2013-08-31 21:19:00,
2013-08-31 17:21:00,76.3,70.4,29.78,ESE,112,0.0,0.0,82,0.00,,,0.00,WUHU21623XXSP,2013-08-31 21:21:00,
2013-08-31 17:23:00,76.3,70.4,29.78,ESE,112,0.0,0.0,82,0.00,,,0.00,WUHU21623XXSP,2013-08-31 21:23:00,
2013-08-31 17:25:00,76.1,70.2,29.78,SW,225,0.0,0.0,82,0.00,,,0.00,WUHU21623XXSP,2013-08-31 21:25:00,
2013-08-31 17:27:00,76.1,70.2,29.78,SSE,157,0.0,0.0,82,0.00,,,0.00,WUHU21623XXSP,2013-08-31 21:27:00,
2013-08-31 17:30:00,76.1,70.2,29.78,SSE,157,0.0,0.0,82,0.00,,,0.00,WUHU21623XXSP,2013-08-31 21:30:00,
2013-08-31 17:32:00,75.9,70.4,29.78,South,180,1.3,1.3,83,0.00,,,0.00,WUHU21623XXSP,2013-08-31 21:32:00,
2013-08-31 17:34:00,75.9,70.4,29.78,NE,45,0.0,1.3,83,0.00,,,0.00,WUHU21623XXSP,2013-08-31 21:34:00,
2013-08-31 17:36:00,75.7,70.2,29.78,SE,135,1.6,1.6,83,0.00,,,0.00,WUHU21623XXSP,2013-08-31 21:36:00,
2013-08-31 17:38:00,75.7,70.2,29.78,ESE,112,0.0,1.6,83,0.00,,,0.00,WUHU21623XXSP,2013-08-31 21:38:00,
2013-08-31 17:40:00,75.7,70.2,29.78,ESE,112,0.0,1.6,83,0.00,,,0.00,WUHU21623XXSP,2013-08-31 21:40:00,
2013-08-31 17:43:00,75.6,70.1,29.78,ESE,112,0.0,1.6,83,0.00,,,0.00,WUHU21623XXSP,2013-08-31 21:43:00,
2013-08-31 17:45:00,75.6,70.4,29.78,NE,45,0.0,1.6,84,0.00,,,0.00,WUHU21623XXSP,2013-08-31 21:45:00,
2013-08-31 17:47:00,75.6,70.4,29.78,East,90,1.3,1.3,84,0.00,,,0.00,WUHU21623XXSP,2013-08-31 21:47:00,
2013-08-31 17:49:00,75.6,70.4,29.78,SSE,157,0.0,1.3,84,0.00,,,0.00,WUHU21623XXSP,2013-08-31 21:49:00,
2013-08-31 17:51:00,75.4,70.3,29.77,SSE,157,0.0,1.3,84,0.00,,,0.00,WUHU21623XXSP,2013-08-31 21:51:00,
2013-08-31 17:53:00,75.4,70.3,29.78,ENE,67,2.9,2.9,84,0.00,,,0.00,WUHU21623XXSP,2013-08-31 21:53:00,
2013-08-31 17:55:00,75.4,70.3,29.78,South,180,0.0,2.9,84,0.00,,,0.00,WUHU21623XXSP,2013-08-31 21:55:00,
2013-08-31 17:57:00,75.4,70.3,29.78,ENE,67,0.0,2.9,84,0.00,,,0.00,WUHU21623XXSP,2013-08-31 21:57:00,
2013-08-31 18:00:00,75.4,70.3,29.78,NNE,22,0.0,2.9,84,0.00,,,0.00,WUHU21623XXSP,2013-08-31 22:00:00,
2013-08-31 18:02:00,75.4,70.3,29.78,NNE,22,0.0,2.9,84,0.00,,,0.00,WUHU21623XXSP,2013-08-31 22:02:00,
2013-08-31 18:04:00,75.4,70.3,29.78,SE,135,0.0,0.0,84,0.00,,,0.00,WUHU21623XXSP,2013-08-31 22:04:00,
2013-08-31 18:06:00,75.4,70.3,29.78,South,180,0.0,0.0,84,0.00,,,0.00,WUHU21623XXSP,2013-08-31 22:06:00,
2013-08-31 18:08:00,75.4,70.3,29.78,SW,225,0.0,0.0,84,0.00,,,0.00,WUHU21623XXSP,2013-08-31 22:08:00,
2013-08-31 18:10:00,75.4,70.3,29.78,SE,135,0.9,0.9,84,0.00,,,0.00,WUHU21623XXSP,2013-08-31 22:10:00,
2013-08-31 18:13:00,75.4,70.3,29.78,NNW,337,0.0,0.9,84,0.00,,,0.00,WUHU21623XXSP,2013-08-31 22:13:00,
2013-08-31 18:15:00,75.4,70.3,29.78,SE,135,0.0,0.9,84,0.00,,,0.00,WUHU21623XXSP,2013-08-31 22:15:00,
2013-08-31 18:17:00,75.2,70.1,29.78,SSE,157,0.0,0.9,84,0.00,,,0.00,WUHU21623XXSP,2013-08-31 22:17:00,
2013-08-31 18:19:00,75.2,70.1,29.78,East,90,0.0,0.9,84,0.00,,,0.00,WUHU21623XXSP,2013-08-31 22:19:00,
2013-08-31 18:21:00,75.2,70.1,29.78,SSE,157,0.0,0.0,84,0.00,,,0.00,WUHU21623XXSP,2013-08-31 22:21:00,
2013-08-31 18:23:00,75.0,70.1,29.78,SSE,157,0.0,0.0,84,0.00,,,0.00,WUHU21623XXSP,2013-08-31 22:23:00,
2013-08-31 18:25:00,75.0,69.9,29.78,NE,45,0.0,0.0,84,0.00,,,0.00,WUHU21623XXSP,2013-08-31 22:25:00,
2013-08-31 18:27:00,75.0,69.9,29.78,East,90,0.0,0.0,85,0.00,,,0.00,WUHU21623XXSP,2013-08-31 22:27:00,
2013-08-31 18:30:00,75.0,70.3,29.78,ESE,112,0.0,0.0,85,0.00,,,0.00,WUHU21623XXSP,2013-08-31 22:30:00,
2013-08-31 18:32:00,75.0,70.3,29.78,ESE,112,0.0,0.0,85,0.00,,,0.00,WUHU21623XXSP,2013-08-31 22:32:00,
2013-08-31 18:34:00,75.0,70.3,29.78,ESE,112,0.0,0.0,85,0.00,,,0.00,WUHU21623XXSP,2013-08-31 22:34:00,
2013-08-31 18:36:00,74.8,70.1,29.78,WNW,292,0.0,0.0,85,0.00,,,0.00,WUHU21623XXSP,2013-08-31 22:36:00,
2013-08-31 18:38:00,74.8,70.1,29.78,SE,135,1.6,1.6,85,0.00,,,0.00,WUHU21623XXSP,2013-08-31 22:38:00,
2013-08-31 18:40:00,74.8,70.1,29.78,SSE,157,0.0,1.6,85,0.00,,,0.00,WUHU21623XXSP,2013-08-31 22:40:00,
2013-08-31 18:43:00,74.8,70.1,29.78,ESE,112,0.0,1.6,85,0.00,,,0.00,WUHU21623XXSP,2013-08-31 22:43:00,
2013-08-31 18:44:00,74.8,70.1,29.78,ESE,112,0.0,1.6,85,0.00,,,0.00,WUHU21623XXSP,2013-08-31 22:44:00,
2013-08-31 18:47:00,74.7,69.9,29.78,NE,45,0.0,1.6,85,0.00,,,0.00,WUHU21623XXSP,2013-08-31 22:47:00,
2013-08-31 18:49:00,74.5,69.9,29.78,NE,45,0.0,0.0,85,0.00,,,0.00,WUHU21623XXSP,2013-08-31 22:49:00,
2013-08-31 18:51:00,74.5,69.7,29.78,East,90,0.0,0.0,85,0.00,,,0.00,WUHU21623XXSP,2013-08-31 22:51:00,
2013-08-31 18:53:00,74.5,69.7,29.78,SW,225,0.0,0.0,85,0.00,,,0.00,WUHU21623XXSP,2013-08-31 22:53:00,
2013-08-31 18:55:00,74.5,69.7,29.78,SSE,157,0.0,0.0,85,0.00,,,0.00,WUHU21623XXSP,2013-08-31 22:55:00,
2013-08-31 18:57:00,74.3,69.7,29.78,SSE,157,0.0,0.0,85,0.00,,,0.00,WUHU21623XXSP,2013-08-31 22:57:00,
2013-08-31 19:00:00,74.3,69.5,29.78,NE,45,0.0,0.0,85,0.00,,,0.00,WUHU21623XXSP,2013-08-31 23:00:00,
2013-08-31 19:02:00,74.3,69.5,29.78,East,90,0.0,0.0,85,0.00,,,0.00,WUHU21623XXSP,2013-08-31 23:02:00,
2013-08-31 19:04:00,74.3,69.5,29.78,South,180,0.0,0.0,85,0.00,,,0.00,WUHU21623XXSP,2013-08-31 23:04:00,
2013-08-31 19:06:00,74.1,69.3,29.78,South,180,0.0,0.0,85,0.00,,,0.00,WUHU21623XXSP,2013-08-31 23:06:00,
2013-08-31 19:08:00,74.1,69.3,29.78,NE,45,0.0,0.0,85,0.00,,,0.00,WUHU21623XXSP,2013-08-31 23:08:00,
2013-08-31 19:10:00,74.1,69.3,29.78,SSW,202,0.0,0.0,85,0.00,,,0.00,WUHU21623XXSP,2013-08-31 23:10:00,
2013-08-31 19:12:00,74.1,69.3,29.78,SSW,202,0.0,0.0,85,0.00,,,0.00,WUHU21623XXSP,2013-08-31 23:12:00,
2013-08-31 19:15:00,74.1,69.3,29.78,ESE,112,1.6,1.6,85,0.00,,,0.00,WUHU21623XXSP,2013-08-31 23:15:00,
2013-08-31 19:17:00,74.1,69.7,29.78,SE,135,0.0,1.6,86,0.00,,,0.00,WUHU21623XXSP,2013-08-31 23:17:00,
2013-08-31 19:19:00,73.9,69.5,29.78,East,90,1.6,1.6,86,0.00,,,0.00,WUHU21623XXSP,2013-08-31 23:19:00,
2013-08-31 19:21:00,73.9,69.5,29.78,SE,135,0.0,1.6,86,0.00,,,0.00,WUHU21623XXSP,2013-08-31 23:21:00,
2013-08-31 19:23:00,73.9,69.5,29.78,ENE,67,0.0,1.6,86,0.00,,,0.00,WUHU21623XXSP,2013-08-31 23:23:00,
2013-08-31 19:25:00,73.9,69.5,29.78,ENE,67,0.0,1.6,86,0.00,,,0.00,WUHU21623XXSP,2013-08-31 23:25:00,
2013-08-31 19:28:00,73.8,69.3,29.79,SW,225,0.0,1.6,86,0.00,,,0.00,WUHU21623XXSP,2013-08-31 23:28:00,
2013-08-31 19:30:00,73.8,69.3,29.78,SE,135,0.0,0.0,86,0.00,,,0.00,WUHU21623XXSP,2013-08-31 23:30:00,
2013-08-31 19:32:00,73.8,69.3,29.78,East,90,0.0,0.0,86,0.00,,,0.00,WUHU21623XXSP,2013-08-31 23:32:00,
2013-08-31 19:34:00,73.6,69.2,29.78,East,90,8.3,8.3,86,0.00,,,0.00,WUHU21623XXSP,2013-08-31 23:34:00,
2013-08-31 19:36:00,73.6,69.2,29.78,ESE,112,0.0,8.3,86,0.00,,,0.00,WUHU21623XXSP,2013-08-31 23:36:00,
2013-08-31 19:38:00,73.6,69.2,29.78,ESE,112,0.0,8.3,86,0.00,,,0.00,WUHU21623XXSP,2013-08-31 23:38:00,
2013-08-31 19:40:00,73.6,69.2,29.78,ESE,112,0.0,8.3,86,0.00,,,0.00,WUHU21623XXSP,2013-08-31 23:40:00,
2013-08-31 19:42:00,73.4,69.0,29.78,NE,45,1.1,8.3,86,0.00,,,0.00,WUHU21623XXSP,2013-08-31 23:42:00,
2013-08-31 19:45:00,73.4,69.0,29.78,NE,45,1.1,1.1,86,0.00,,,0.00,WUHU21623XXSP,2013-08-31 23:45:00,
2013-08-31 19:47:00,73.4,69.3,29.79,SE,135,0.0,1.1,87,0.00,,,0.00,WUHU21623XXSP,2013-08-31 23:47:00,
2013-08-31 19:49:00,73.2,69.1,29.79,South,180,0.0,1.1,87,0.00,,,0.00,WUHU21623XXSP,2013-08-31 23:49:00,
2013-08-31 19:51:00,73.2,69.1,29.79,South,180,0.0,1.1,87,0.00,,,0.00,WUHU21623XXSP,2013-08-31 23:51:00,
2013-08-31 19:53:00,73.2,69.1,29.78,East,90,0.0,1.1,87,0.00,,,0.00,WUHU21623XXSP,2013-08-31 23:53:00,
2013-08-31 19:55:00,73.2,69.1,29.79,East,90,0.0,0.0,87,0.00,,,0.00,WUHU21623XXSP,2013-08-31 23:55:00,
2013-08-31 19:57:00,73.2,69.1,29.79,SSE,157,0.0,0.0,87,0.00,,,0.00,WUHU21623XXSP,2013-08-31 23:57:00,
2013-08-31 20:00:00,73.2,69.1,29.79,ESE,112,0.0,0.0,87,0.00,,,0.00,WUHU21623XXSP,2013-09-01 00:00:00,
2013-08-31 20:02:00,73.2,69.1,29.79,East,90,0.0,0.0,87,0.00,,,0.00,WUHU21623XXSP,2013-09-01 00:02:00,
2013-08-31 20:04:00,73.2,69.1,29.79,SSE,157,0.0,0.0,87,0.00,,,0.00,WUHU21623XXSP,2013-09-01 00:04:00,
2013-08-31 20:06:00,73.2,69.1,29.79,SSE,157,1.1,1.1,87,0.00,,,0.00,WUHU21623XXSP,2013-09-01 00:06:00,
2013-08-31 20:08:00,73.2,69.1,29.80,North,0,1.1,1.1,87,0.00,,,0.00,WUHU21623XXSP,2013-09-01 00:08:00,
2013-08-31 20:10:00,73.0,69.0,29.79,ENE,67,0.0,1.1,87,0.00,,,0.00,WUHU21623XXSP,2013-09-01 00:10:00,
2013-08-31 20:12:00,73.2,69.1,29.79,SSE,157,0.0,1.1,87,0.00,,,0.00,WUHU21623XXSP,2013-09-01 00:12:00,
2013-08-31 20:15:00,73.0,69.0,29.79,NW,315,0.0,1.1,87,0.00,,,0.00,WUHU21623XXSP,2013-09-01 00:15:00,
2013-08-31 20:17:00,73.0,69.3,29.79,East,90,0.0,1.1,88,0.00,,,0.00,WUHU21623XXSP,2013-09-01 00:17:00,
2013-08-31 20:19:00,73.0,69.3,29.79,East,90,0.0,0.0,88,0.00,,,0.00,WUHU21623XXSP,2013-09-01 00:19:00,
2013-08-31 20:21:00,73.0,69.3,29.79,NE,45,0.0,0.0,88,0.00,,,0.00,WUHU21623XXSP,2013-09-01 00:21:00,
2013-08-31 20:23:00,73.0,69.3,29.79,NNW,337,0.0,0.0,88,0.00,,,0.00,WUHU21623XXSP,2013-09-01 00:23:00,
2013-08-31 20:25:00,73.0,69.3,29.79,NNW,337,0.0,0.0,88,0.00,,,0.00,WUHU21623XXSP,2013-09-01 00:25:00,
2013-08-31 20:27:00,73.0,69.3,29.80,ENE,67,0.0,0.0,88,0.00,,,0.00,WUHU21623XXSP,2013-09-01 00:27:00,
2013-08-31 20:29:00,73.0,69.3,29.79,ENE,67,0.0,0.0,88,0.00,,,0.00,WUHU21623XXSP,2013-09-01 00:29:00,
2013-08-31 20:32:00,73.0,69.3,29.79,ESE,112,0.0,0.0,88,0.00,,,0.00,WUHU21623XXSP,2013-09-01 00:32:00,
2013-08-31 20:34:00,73.0,69.3,29.79,SSW,202,0.0,0.0,88,0.00,,,0.00,WUHU21623XXSP,2013-09-01 00:34:00,
2013-08-31 20:36:00,72.9,69.1,29.80,ESE,112,0.0,0.0,88,0.00,,,0.00,WUHU21623XXSP,2013-09-01 00:36:00,
2013-08-31 20:38:00,72.9,69.1,29.80,ESE,112,0.0,0.0,88,0.00,,,0.00,WUHU21623XXSP,2013-09-01 00:38:00,
2013-08-31 20:39:00,72.9,69.1,29.80,ESE,112,0.0,0.0,88,0.00,,,0.00,WUHU21623XXSP,2013-09-01 00:39:00,
2013-08-31 20:44:00,72.7,68.9,29.80,SE,135,0.0,0.0,88,0.00,,,0.00,WUHU21623XXSP,2013-09-01 00:44:00,
2013-08-31 20:49:00,72.7,68.9,29.80,NE,45,3.1,3.1,88,0.00,,,0.00,WUHU21623XXSP,2013-09-01 00:49:00,
2013-08-31 20:54:00,72.7,68.9,29.80,ESE,112,0.0,3.1,88,0.00,,,0.00,WUHU21623XXSP,2013-09-01 00:54:00,
2013-08-31 20:59:00,72.7,68.9,29.80,East,90,0.0,0.0,88,0.00,,,0.00,WUHU21623XXSP,2013-09-01 00:59:00,
2013-08-31 21:04:00,72.7,68.9,29.80,NE,45,1.6,1.6,88,0.00,,,0.00,WUHU21623XXSP,2013-09-01 01:04:00,
2013-08-31 21:09:00,72.7,68.9,29.80,ENE,67,0.0,1.6,88,0.00,,,0.00,WUHU21623XXSP,2013-09-01 01:09:00,
2013-08-31 21:14:00,72.7,69.3,29.80,NE,45,0.0,0.0,89,0.00,,,0.00,WUHU21623XXSP,2013-09-01 01:14:00,
2013-08-31 21:19:00,72.7,69.3,29.80,ENE,67,0.0,0.0,89,0.00,,,0.00,WUHU21623XXSP,2013-09-01 01:19:00,
2013-08-31 21:24:00,72.5,69.1,29.80,ESE,112,0.0,0.0,89,0.00,,,0.00,WUHU21623XXSP,2013-09-01 01:24:00,
2013-08-31 21:29:00,72.7,69.3,29.81,SSE,157,0.0,0.0,89,0.00,,,0.00,WUHU21623XXSP,2013-09-01 01:29:00,
2013-08-31 21:34:00,72.7,69.3,29.80,ENE,67,0.0,0.0,89,0.00,,,0.00,WUHU21623XXSP,2013-09-01 01:34:00,
2013-08-31 21:39:00,72.7,69.3,29.80,ENE,67,0.0,0.0,89,0.00,,,0.00,WUHU21623XXSP,2013-09-01 01:39:00,
2013-08-31 21:44:00,72.7,69.3,29.80,WSW,247,0.0,0.0,89,0.00,,,0.00,WUHU21623XXSP,2013-09-01 01:44:00,
2013-08-31 21:49:00,72.7,69.3,29.80,East,90,1.3,1.3,89,0.00,,,0.00,WUHU21623XXSP,2013-09-01 01:49:00,
2013-08-31 21:54:00,72.7,69.3,29.80,NE,45,0.0,1.3,89,0.00,,,0.00,WUHU21623XXSP,2013-09-01 01:54:00,
2013-08-31 21:59:00,72.7,69.3,29.81,East,90,0.0,0.0,89,0.00,,,0.00,WUHU21623XXSP,2013-09-01 01:59:00,
2013-08-31 22:04:00,72.5,69.1,29.81,NE,45,0.0,0.0,89,0.00,,,0.00,WUHU21623XXSP,2013-09-01 02:04:00,
2013-08-31 22:09:00,72.5,69.1,29.80,ESE,112,0.0,0.0,89,0.00,,,0.00,WUHU21623XXSP,2013-09-01 02:09:00,
2013-08-31 22:14:00,72.5,69.1,29.81,SSE,157,0.0,0.0,89,0.00,,,0.00,WUHU21623XXSP,2013-09-01 02:14:00,
2013-08-31 22:19:00,72.5,69.1,29.81,East,90,0.0,0.0,89,0.00,,,0.00,WUHU21623XXSP,2013-09-01 02:19:00,
2013-08-31 22:24:00,72.5,69.1,29.81,South,180,0.0,0.0,89,0.00,,,0.00,WUHU21623XXSP,2013-09-01 02:24:00,
2013-08-31 22:29:00,72.5,69.1,29.81,SSW,202,0.0,0.0,89,0.00,,,0.00,WUHU21623XXSP,2013-09-01 02:29:00,
2013-08-31 22:34:00,72.5,69.1,29.81,ESE,112,0.0,0.0,89,0.00,,,0.00,WUHU21623XXSP,2013-09-01 02:34:00,
2013-08-31 22:39:00,72.3,68.9,29.81,East,90,0.0,0.0,89,0.00,,,0.00,WUHU21623XXSP,2013-09-01 02:39:00,
2013-08-31 22:44:00,72.3,68.9,29.80,East,90,0.0,0.0,89,0.00,,,0.00,WUHU21623XXSP,2013-09-01 02:44:00,
2013-08-31 22:49:00,72.3,68.9,29.81,SE,135,0.0,0.0,89,0.00,,,0.00,WUHU21623XXSP,2013-09-01 02:49:00,
2013-08-31 22:54:00,72.3,68.9,29.80,ESE,112,0.0,0.0,89,0.00,,,0.00,WUHU21623XXSP,2013-09-01 02:54:00,
2013-08-31 22:59:00,72.3,68.9,29.80,SE,135,0.0,0.0,89,0.00,,,0.00,WUHU21623XXSP,2013-09-01 02:59:00,
2013-08-31 23:04:00,72.3,68.9,29.80,SE,135,0.0,1.6,89,0.00,,,0.00,WUHU21623XXSP,2013-09-01 03:04:00,
2013-08-31 23:09:00,72.3,68.9,29.80,ENE,67,0.9,1.6,89,0.00,,,0.00,WUHU21623XXSP,2013-09-01 03:09:00,
2013-08-31 23:14:00,72.3,69.3,29.80,East,90,0.0,0.9,90,0.00,,,0.00,WUHU21623XXSP,2013-09-01 03:14:00,
2013-08-31 23:19:00,72.3,68.9,29.80,SE,135,0.0,0.0,89,0.00,,,0.00,WUHU21623XXSP,2013-09-01 03:19:00,
2013-08-31 23:24:00,72.3,68.9,29.80,ESE,112,0.0,0.0,89,0.00,,,0.00,WUHU21623XXSP,2013-09-01 03:24:00,
2013-08-31 23:29:00,72.3,69.3,29.80,SSE,157,0.0,1.6,90,0.00,,,0.00,WUHU21623XXSP,2013-09-01 03:29:00,
2013-08-31 23:34:00,72.3,69.3,29.80,East,90,0.0,1.6,90,0.00,,,0.00,WUHU21623XXSP,2013-09-01 03:34:00,
2013-08-31 23:39:00,72.3,69.3,29.80,SSW,202,0.0,0.0,90,0.00,,,0.00,WUHU21623XXSP,2013-09-01 03:39:00,
2013-08-31 23:44:00,72.1,69.1,29.80,ESE,112,0.0,0.0,90,0.00,,,0.00,WUHU21623XXSP,2013-09-01 03:44:00,
2013-08-31 23:49:00,72.1,69.1,29.80,SSE,157,0.0,0.0,90,0.00,,,0.00,WUHU21623XXSP,2013-09-01 03:49:00,
2013-08-31 23:54:00,72.1,69.1,29.80,ENE,67,0.0,0.0,90,0.00,,,0.00,WUHU21623XXSP,2013-09-01 03:54:00,
2013-08-31 23:59:00,72.1,69.1,29.80,SSW,202,0.0,0.0,90,0.00,,,0.00,WUHU21623XXSP,2013-09-01 03:59:00,